Forside
METAR-TAF:

METAR-TAF

Lufthavne :

Leh, Indien

Breddekreds: 34-08-09N, længdekreds: 077-32-47E, højde: 3256 m

METAR: fraværende

Tid: 23:00 (17:30 UTC)

Vejrudsigter

Denne rapport blev lavet for 32 timer og 0 minutter siden, kl. 09:30 UTC
Foreløbig gælder fra 02 på 18 UTC til 03 på 12 UTC
Vind 2 kt fra varierende retninger
Sigt: 6000 m
Spredte skyer i en højde af 6000 ft
Spredte skyer i en højde af 12000 ft
ændring
fra 03 på 04 UTC til 03 på XX UTC
Vind 8 kt fra vestnordvest
Spredte skyer i en højde af 6000 ft
Midlertidig
fra 03 på 08 UTC til 03 på 12 UTC
Vind 10 kt fra vestsydvest med vindstød på up til 25 kt
Sigt: 6000 m
Spredte skyer i en højde af 3000 ft
ændring
fra 02 på 15 UTC til 02 på 17 UTC
Vind 2 kt fra varierende retninger
Nogle få skyer i en højde af 10000 ft

TAF: VILH 020930Z 0218/0312 VRB02KT 6000 SCT060 SCT120 BECMG 0304/03XX 29008KT SCT060 TEMPO 0308/0312 29015G25KTVAPO 020930Z 0212/0224 25010KT 6000 SCT030 BECMG 0215/0217 VRB02KT FEW100

Vejrobservationer og prognoser fra mere end 4000 lufthavne (METAR og TAF).

De gule og røde prikker repræsenterer de meteorologiske stationer.

Flyt musen over at se navnet på stationen.

Så klik over at se vejr observationer og prognoser.

At skifte det kort: Klik på de grønne knapper med et sort kors for at zoome ind; på den grønne knap med en bindestreg for at zoome ud; eller på de grønne pile for tilstødende kort.


METAR-TAF: